sensor_id;sensor_type;location;lat;lon;timestamp;P1;durP1;ratioP1;P2;durP2;ratioP2
10403;SDS011;5248;47.374;8.486;2023-08-17T00:01:28;4.95;;;2.40;;
10403;SDS011;5248;47.374;8.486;2023-08-17T00:03:54;3.00;;;2.30;;
10403;SDS011;5248;47.374;8.486;2023-08-17T00:06:21;2.30;;;2.17;;
10403;SDS011;5248;47.374;8.486;2023-08-17T00:08:47;5.72;;;2.65;;
10403;SDS011;5248;47.374;8.486;2023-08-17T00:11:15;2.63;;;2.28;;
10403;SDS011;5248;47.374;8.486;2023-08-17T00:13:42;5.20;;;2.20;;
10403;SDS011;5248;47.374;8.486;2023-08-17T00:16:08;2.40;;;2.22;;
10403;SDS011;5248;47.374;8.486;2023-08-17T00:18:35;3.88;;;2.53;;
10403;SDS011;5248;47.374;8.486;2023-08-17T00:21:01;3.15;;;2.25;;
10403;SDS011;5248;47.374;8.486;2023-08-17T00:23:29;3.05;;;2.13;;
10403;SDS011;5248;47.374;8.486;2023-08-17T00:25:55;2.25;;;2.05;;
10403;SDS011;5248;47.374;8.486;2023-08-17T00:28:25;2.80;;;2.00;;
10403;SDS011;5248;47.374;8.486;2023-08-17T00:30:52;2.17;;;2.00;;
10403;SDS011;5248;47.374;8.486;2023-08-17T00:33:18;2.65;;;2.20;;
10403;SDS011;5248;47.374;8.486;2023-08-17T00:35:45;2.50;;;2.30;;
10403;SDS011;5248;47.374;8.486;2023-08-17T00:38:13;2.88;;;2.25;;
10403;SDS011;5248;47.374;8.486;2023-08-17T00:40:39;3.70;;;2.20;;
10403;SDS011;5248;47.374;8.486;2023-08-17T00:43:06;6.15;;;2.60;;
10403;SDS011;5248;47.374;8.486;2023-08-17T00:45:34;4.25;;;2.55;;
10403;SDS011;5248;47.374;8.486;2023-08-17T00:48:01;3.30;;;2.40;;
10403;SDS011;5248;47.374;8.486;2023-08-17T00:50:30;2.72;;;2.47;;
10403;SDS011;5248;47.374;8.486;2023-08-17T00:52:56;4.95;;;2.30;;
10403;SDS011;5248;47.374;8.486;2023-08-17T00:55:23;2.53;;;2.25;;
10403;SDS011;5248;47.374;8.486;2023-08-17T00:57:50;2.92;;;2.70;;
10403;SDS011;5248;47.374;8.486;2023-08-17T01:00:18;4.45;;;2.53;;
10403;SDS011;5248;47.374;8.486;2023-08-17T01:02:46;2.40;;;2.20;;
10403;SDS011;5248;47.374;8.486;2023-08-17T01:05:13;3.35;;;3.05;;
10403;SDS011;5248;47.374;8.486;2023-08-17T01:07:39;2.63;;;2.42;;
10403;SDS011;5248;47.374;8.486;2023-08-17T01:10:06;2.58;;;2.38;;
10403;SDS011;5248;47.374;8.486;2023-08-17T01:12:35;2.88;;;2.60;;
10403;SDS011;5248;47.374;8.486;2023-08-17T01:15:05;2.88;;;2.67;;
10403;SDS011;5248;47.374;8.486;2023-08-17T01:17:37;4.90;;;2.60;;
10403;SDS011;5248;47.374;8.486;2023-08-17T01:20:08;2.80;;;2.60;;
10403;SDS011;5248;47.374;8.486;2023-08-17T01:22:37;5.28;;;2.88;;
10403;SDS011;5248;47.374;8.486;2023-08-17T01:25:08;2.90;;;2.70;;
10403;SDS011;5248;47.374;8.486;2023-08-17T01:27:36;2.78;;;2.40;;
10403;SDS011;5248;47.374;8.486;2023-08-17T01:30:05;2.67;;;2.47;;
10403;SDS011;5248;47.374;8.486;2023-08-17T01:32:34;3.00;;;2.70;;
10403;SDS011;5248;47.374;8.486;2023-08-17T01:35:04;2.80;;;2.47;;
10403;SDS011;5248;47.374;8.486;2023-08-17T01:37:35;2.92;;;2.45;;
10403;SDS011;5248;47.374;8.486;2023-08-17T01:40:04;2.67;;;2.47;;
10403;SDS011;5248;47.374;8.486;2023-08-17T01:42:34;6.35;;;2.78;;
10403;SDS011;5248;47.374;8.486;2023-08-17T01:45:00;3.22;;;3.03;;
10403;SDS011;5248;47.374;8.486;2023-08-17T01:47:27;5.00;;;2.90;;
10403;SDS011;5248;47.374;8.486;2023-08-17T01:49:53;3.70;;;2.63;;
10403;SDS011;5248;47.374;8.486;2023-08-17T01:52:24;3.17;;;2.83;;
10403;SDS011;5248;47.374;8.486;2023-08-17T01:54:52;4.28;;;2.90;;
10403;SDS011;5248;47.374;8.486;2023-08-17T01:57:18;3.80;;;2.50;;
10403;SDS011;5248;47.374;8.486;2023-08-17T01:59:46;2.78;;;2.45;;
10403;SDS011;5248;47.374;8.486;2023-08-17T02:02:12;2.67;;;2.35;;
10403;SDS011;5248;47.374;8.486;2023-08-17T02:04:39;2.90;;;2.70;;
10403;SDS011;5248;47.374;8.486;2023-08-17T02:07:06;2.92;;;2.70;;
10403;SDS011;5248;47.374;8.486;2023-08-17T02:09:33;2.60;;;2.40;;
10403;SDS011;5248;47.374;8.486;2023-08-17T02:11:59;2.97;;;2.78;;
10403;SDS011;5248;47.374;8.486;2023-08-17T02:14:25;3.15;;;2.30;;
10403;SDS011;5248;47.374;8.486;2023-08-17T02:16:53;3.28;;;2.75;;
10403;SDS011;5248;47.374;8.486;2023-08-17T02:19:20;3.30;;;2.90;;
10403;SDS011;5248;47.374;8.486;2023-08-17T02:21:46;3.67;;;2.90;;
10403;SDS011;5248;47.374;8.486;2023-08-17T02:24:13;2.95;;;2.75;;
10403;SDS011;5248;47.374;8.486;2023-08-17T02:26:39;3.67;;;2.72;;
10403;SDS011;5248;47.374;8.486;2023-08-17T02:29:13;3.92;;;2.53;;
10403;SDS011;5248;47.374;8.486;2023-08-17T02:31:39;3.28;;;2.97;;
10403;SDS011;5248;47.374;8.486;2023-08-17T02:34:07;2.90;;;2.58;;
10403;SDS011;5248;47.374;8.486;2023-08-17T02:36:34;4.30;;;3.10;;
10403;SDS011;5248;47.374;8.486;2023-08-17T02:39:01;2.60;;;2.50;;
10403;SDS011;5248;47.374;8.486;2023-08-17T02:41:28;4.00;;;2.90;;
10403;SDS011;5248;47.374;8.486;2023-08-17T02:43:55;3.40;;;2.95;;
10403;SDS011;5248;47.374;8.486;2023-08-17T02:46:21;3.70;;;2.95;;
10403;SDS011;5248;47.374;8.486;2023-08-17T02:48:48;6.15;;;3.38;;
10403;SDS011;5248;47.374;8.486;2023-08-17T02:51:16;3.72;;;3.13;;
10403;SDS011;5248;47.374;8.486;2023-08-17T02:53:42;3.58;;;2.90;;
10403;SDS011;5248;47.374;8.486;2023-08-17T02:56:09;3.40;;;3.10;;
10403;SDS011;5248;47.374;8.486;2023-08-17T02:58:37;5.05;;;3.10;;
10403;SDS011;5248;47.374;8.486;2023-08-17T03:01:05;4.43;;;3.28;;
10403;SDS011;5248;47.374;8.486;2023-08-17T03:03:33;5.47;;;3.40;;
10403;SDS011;5248;47.374;8.486;2023-08-17T03:05:59;3.38;;;3.17;;
10403;SDS011;5248;47.374;8.486;2023-08-17T03:08:27;5.05;;;3.40;;
10403;SDS011;5248;47.374;8.486;2023-08-17T03:10:54;4.60;;;3.10;;
10403;SDS011;5248;47.374;8.486;2023-08-17T03:13:20;5.38;;;3.35;;
10403;SDS011;5248;47.374;8.486;2023-08-17T03:15:47;5.47;;;3.35;;
10403;SDS011;5248;47.374;8.486;2023-08-17T03:18:14;4.00;;;3.65;;
10403;SDS011;5248;47.374;8.486;2023-08-17T03:20:40;4.13;;;3.13;;
10403;SDS011;5248;47.374;8.486;2023-08-17T03:23:06;3.50;;;3.20;;
10403;SDS011;5248;47.374;8.486;2023-08-17T03:25:35;4.13;;;3.70;;
10403;SDS011;5248;47.374;8.486;2023-08-17T03:28:02;4.22;;;3.55;;
10403;SDS011;5248;47.374;8.486;2023-08-17T03:30:29;5.45;;;3.50;;
10403;SDS011;5248;47.374;8.486;2023-08-17T03:32:58;3.80;;;3.42;;
10403;SDS011;5248;47.374;8.486;2023-08-17T03:35:25;4.43;;;3.60;;
10403;SDS011;5248;47.374;8.486;2023-08-17T03:37:51;4.38;;;3.70;;
10403;SDS011;5248;47.374;8.486;2023-08-17T03:40:18;4.38;;;3.70;;
10403;SDS011;5248;47.374;8.486;2023-08-17T03:42:46;5.65;;;3.83;;
10403;SDS011;5248;47.374;8.486;2023-08-17T03:45:12;3.80;;;3.50;;
10403;SDS011;5248;47.374;8.486;2023-08-17T03:47:39;4.32;;;3.92;;
10403;SDS011;5248;47.374;8.486;2023-08-17T03:50:07;8.00;;;6.82;;
10403;SDS011;5248;47.374;8.486;2023-08-17T03:52:34;5.03;;;4.50;;
10403;SDS011;5248;47.374;8.486;2023-08-17T03:55:02;3.90;;;3.67;;
10403;SDS011;5248;47.374;8.486;2023-08-17T03:57:32;4.22;;;3.83;;
10403;SDS011;5248;47.374;8.486;2023-08-17T04:00:00;4.18;;;3.88;;
10403;SDS011;5248;47.374;8.486;2023-08-17T04:02:27;4.07;;;3.70;;
10403;SDS011;5248;47.374;8.486;2023-08-17T04:04:53;4.32;;;3.88;;
10403;SDS011;5248;47.374;8.486;2023-08-17T04:07:20;3.90;;;3.63;;
10403;SDS011;5248;47.374;8.486;2023-08-17T04:09:47;6.32;;;4.20;;
10403;SDS011;5248;47.374;8.486;2023-08-17T04:12:14;4.05;;;3.60;;
10403;SDS011;5248;47.374;8.486;2023-08-17T04:14:41;7.63;;;3.95;;
10403;SDS011;5248;47.374;8.486;2023-08-17T04:17:09;4.10;;;3.60;;
10403;SDS011;5248;47.374;8.486;2023-08-17T04:19:35;4.40;;;3.60;;
10403;SDS011;5248;47.374;8.486;2023-08-17T04:22:01;4.00;;;3.63;;
10403;SDS011;5248;47.374;8.486;2023-08-17T04:24:29;4.85;;;3.80;;
10403;SDS011;5248;47.374;8.486;2023-08-17T04:26:56;4.68;;;3.85;;
10403;SDS011;5248;47.374;8.486;2023-08-17T04:29:22;4.18;;;3.78;;
10403;SDS011;5248;47.374;8.486;2023-08-17T04:31:49;4.10;;;3.80;;
10403;SDS011;5248;47.374;8.486;2023-08-17T04:34:17;4.22;;;3.90;;
10403;SDS011;5248;47.374;8.486;2023-08-17T04:36:43;3.92;;;3.60;;
10403;SDS011;5248;47.374;8.486;2023-08-17T04:39:12;6.78;;;3.50;;
10403;SDS011;5248;47.374;8.486;2023-08-17T04:41:42;4.45;;;3.70;;
10403;SDS011;5248;47.374;8.486;2023-08-17T04:44:08;3.92;;;3.63;;
10403;SDS011;5248;47.374;8.486;2023-08-17T04:46:35;5.00;;;3.50;;
10403;SDS011;5248;47.374;8.486;2023-08-17T04:49:01;6.25;;;3.67;;
10403;SDS011;5248;47.374;8.486;2023-08-17T04:51:30;4.03;;;3.50;;
10403;SDS011;5248;47.374;8.486;2023-08-17T04:53:57;3.92;;;3.50;;
10403;SDS011;5248;47.374;8.486;2023-08-17T04:56:28;5.18;;;3.88;;
10403;SDS011;5248;47.374;8.486;2023-08-17T04:58:54;4.80;;;3.75;;
10403;SDS011;5248;47.374;8.486;2023-08-17T05:01:22;3.63;;;3.33;;
10403;SDS011;5248;47.374;8.486;2023-08-17T05:03:48;4.70;;;3.55;;
10403;SDS011;5248;47.374;8.486;2023-08-17T05:06:15;3.80;;;3.50;;
10403;SDS011;5248;47.374;8.486;2023-08-17T05:08:43;4.40;;;3.75;;
10403;SDS011;5248;47.374;8.486;2023-08-17T05:11:09;4.40;;;3.88;;
10403;SDS011;5248;47.374;8.486;2023-08-17T05:13:37;3.95;;;3.40;;
10403;SDS011;5248;47.374;8.486;2023-08-17T05:16:04;3.60;;;3.30;;
10403;SDS011;5248;47.374;8.486;2023-08-17T05:18:31;5.72;;;4.07;;
10403;SDS011;5248;47.374;8.486;2023-08-17T05:20:57;4.40;;;3.78;;
10403;SDS011;5248;47.374;8.486;2023-08-17T05:23:24;5.18;;;3.17;;
10403;SDS011;5248;47.374;8.486;2023-08-17T05:25:52;4.82;;;3.30;;
10403;SDS011;5248;47.374;8.486;2023-08-17T05:28:20;4.97;;;3.83;;
10403;SDS011;5248;47.374;8.486;2023-08-17T05:30:47;4.18;;;3.53;;
10403;SDS011;5248;47.374;8.486;2023-08-17T05:33:14;3.75;;;3.45;;
10403;SDS011;5248;47.374;8.486;2023-08-17T05:35:41;3.80;;;3.50;;
10403;SDS011;5248;47.374;8.486;2023-08-17T05:38:09;4.30;;;3.53;;
10403;SDS011;5248;47.374;8.486;2023-08-17T05:40:35;3.90;;;3.53;;
10403;SDS011;5248;47.374;8.486;2023-08-17T05:43:03;4.97;;;3.45;;
10403;SDS011;5248;47.374;8.486;2023-08-17T05:45:32;4.43;;;3.53;;
10403;SDS011;5248;47.374;8.486;2023-08-17T05:48:01;3.38;;;3.17;;
10403;SDS011;5248;47.374;8.486;2023-08-17T05:50:28;3.80;;;3.42;;
10403;SDS011;5248;47.374;8.486;2023-08-17T05:52:55;3.47;;;3.17;;
10403;SDS011;5248;47.374;8.486;2023-08-17T05:55:22;3.45;;;3.20;;
10403;SDS011;5248;47.374;8.486;2023-08-17T05:57:49;3.67;;;3.40;;
10403;SDS011;5248;47.374;8.486;2023-08-17T06:00:17;4.10;;;3.42;;
10403;SDS011;5248;47.374;8.486;2023-08-17T06:02:43;3.45;;;3.03;;
10403;SDS011;5248;47.374;8.486;2023-08-17T06:05:14;4.22;;;3.40;;
10403;SDS011;5248;47.374;8.486;2023-08-17T06:07:41;4.80;;;3.00;;
10403;SDS011;5248;47.374;8.486;2023-08-17T06:10:08;3.13;;;2.92;;
10403;SDS011;5248;47.374;8.486;2023-08-17T06:12:36;3.20;;;2.90;;
10403;SDS011;5248;47.374;8.486;2023-08-17T06:15:03;5.13;;;2.90;;
10403;SDS011;5248;47.374;8.486;2023-08-17T06:17:31;3.55;;;2.97;;
10403;SDS011;5248;47.374;8.486;2023-08-17T06:19:58;7.45;;;3.08;;
10403;SDS011;5248;47.374;8.486;2023-08-17T06:22:25;4.00;;;3.00;;
10403;SDS011;5248;47.374;8.486;2023-08-17T06:24:51;3.35;;;2.80;;
10403;SDS011;5248;47.374;8.486;2023-08-17T06:27:18;3.72;;;3.00;;
10403;SDS011;5248;47.374;8.486;2023-08-17T06:29:44;5.25;;;3.10;;
10403;SDS011;5248;47.374;8.486;2023-08-17T06:32:11;5.43;;;2.67;;
10403;SDS011;5248;47.374;8.486;2023-08-17T06:34:39;2.92;;;2.67;;
10403;SDS011;5248;47.374;8.486;2023-08-17T06:37:06;3.28;;;2.90;;
10403;SDS011;5248;47.374;8.486;2023-08-17T06:39:32;2.90;;;2.70;;
10403;SDS011;5248;47.374;8.486;2023-08-17T06:42:01;4.18;;;2.92;;
10403;SDS011;5248;47.374;8.486;2023-08-17T06:44:28;3.38;;;2.50;;
10403;SDS011;5248;47.374;8.486;2023-08-17T06:46:56;3.80;;;2.90;;
10403;SDS011;5248;47.374;8.486;2023-08-17T06:49:25;3.20;;;2.83;;
10403;SDS011;5248;47.374;8.486;2023-08-17T06:51:56;3.60;;;2.85;;
10403;SDS011;5248;47.374;8.486;2023-08-17T06:54:23;4.10;;;3.13;;
10403;SDS011;5248;47.374;8.486;2023-08-17T06:56:49;3.70;;;3.30;;
10403;SDS011;5248;47.374;8.486;2023-08-17T06:59:16;4.03;;;3.08;;
10403;SDS011;5248;47.374;8.486;2023-08-17T07:01:42;3.10;;;2.90;;
10403;SDS011;5248;47.374;8.486;2023-08-17T07:04:09;3.67;;;2.90;;
10403;SDS011;5248;47.374;8.486;2023-08-17T07:06:36;5.97;;;3.13;;
10403;SDS011;5248;47.374;8.486;2023-08-17T07:09:04;3.22;;;2.60;;
10403;SDS011;5248;47.374;8.486;2023-08-17T07:11:31;5.43;;;3.03;;
10403;SDS011;5248;47.374;8.486;2023-08-17T07:13:57;3.40;;;2.92;;
10403;SDS011;5248;47.374;8.486;2023-08-17T07:16:24;7.38;;;3.10;;
10403;SDS011;5248;47.374;8.486;2023-08-17T07:18:50;3.30;;;3.00;;
10403;SDS011;5248;47.374;8.486;2023-08-17T07:21:16;3.30;;;3.00;;
10403;SDS011;5248;47.374;8.486;2023-08-17T07:23:43;2.67;;;2.47;;
10403;SDS011;5248;47.374;8.486;2023-08-17T07:26:12;3.97;;;3.08;;
10403;SDS011;5248;47.374;8.486;2023-08-17T07:28:38;5.28;;;2.80;;
10403;SDS011;5248;47.374;8.486;2023-08-17T07:31:05;2.92;;;2.67;;
10403;SDS011;5248;47.374;8.486;2023-08-17T07:33:31;3.00;;;2.80;;
10403;SDS011;5248;47.374;8.486;2023-08-17T07:35:58;4.10;;;2.60;;
10403;SDS011;5248;47.374;8.486;2023-08-17T07:38:24;3.88;;;2.88;;
10403;SDS011;5248;47.374;8.486;2023-08-17T07:40:51;3.78;;;2.88;;
10403;SDS011;5248;47.374;8.486;2023-08-17T07:43:19;4.40;;;2.97;;
10403;SDS011;5248;47.374;8.486;2023-08-17T07:45:45;5.32;;;3.15;;
10403;SDS011;5248;47.374;8.486;2023-08-17T07:48:12;3.78;;;2.90;;
10403;SDS011;5248;47.374;8.486;2023-08-17T07:50:38;3.20;;;2.90;;
10403;SDS011;5248;47.374;8.486;2023-08-17T07:53:05;3.85;;;2.90;;
10403;SDS011;5248;47.374;8.486;2023-08-17T07:55:31;6.32;;;3.30;;
10403;SDS011;5248;47.374;8.486;2023-08-17T07:57:57;4.85;;;3.15;;
10403;SDS011;5248;47.374;8.486;2023-08-17T08:00:25;5.50;;;3.20;;
10403;SDS011;5248;47.374;8.486;2023-08-17T08:02:52;7.72;;;3.60;;
10403;SDS011;5248;47.374;8.486;2023-08-17T08:05:18;13.40;;;4.38;;
10403;SDS011;5248;47.374;8.486;2023-08-17T08:07:45;4.15;;;3.75;;
10403;SDS011;5248;47.374;8.486;2023-08-17T08:10:11;4.88;;;3.35;;
10403;SDS011;5248;47.374;8.486;2023-08-17T08:12:39;4.32;;;3.53;;
10403;SDS011;5248;47.374;8.486;2023-08-17T08:15:06;6.15;;;3.72;;
10403;SDS011;5248;47.374;8.486;2023-08-17T08:17:35;3.78;;;3.17;;
10403;SDS011;5248;47.374;8.486;2023-08-17T08:20:02;7.35;;;3.50;;
10403;SDS011;5248;47.374;8.486;2023-08-17T08:22:29;4.65;;;3.47;;
10403;SDS011;5248;47.374;8.486;2023-08-17T08:24:55;5.18;;;3.25;;
10403;SDS011;5248;47.374;8.486;2023-08-17T08:27:22;3.67;;;3.38;;
10403;SDS011;5248;47.374;8.486;2023-08-17T08:29:49;4.68;;;3.60;;
10403;SDS011;5248;47.374;8.486;2023-08-17T08:32:16;6.57;;;3.58;;
10403;SDS011;5248;47.374;8.486;2023-08-17T08:34:43;4.25;;;3.33;;
10403;SDS011;5248;47.374;8.486;2023-08-17T08:37:10;4.28;;;3.63;;
10403;SDS011;5248;47.374;8.486;2023-08-17T08:39:47;3.47;;;3.28;;
10403;SDS011;5248;47.374;8.486;2023-08-17T08:42:14;6.25;;;3.75;;
10403;SDS011;5248;47.374;8.486;2023-08-17T08:44:41;4.82;;;3.70;;
10403;SDS011;5248;47.374;8.486;2023-08-17T08:47:10;6.53;;;3.40;;
10403;SDS011;5248;47.374;8.486;2023-08-17T08:49:37;4.07;;;3.78;;
10403;SDS011;5248;47.374;8.486;2023-08-17T08:52:07;6.10;;;4.10;;
10403;SDS011;5248;47.374;8.486;2023-08-17T08:54:35;5.72;;;3.97;;
10403;SDS011;5248;47.374;8.486;2023-08-17T08:57:03;4.47;;;3.75;;
10403;SDS011;5248;47.374;8.486;2023-08-17T08:59:33;5.88;;;4.18;;
10403;SDS011;5248;47.374;8.486;2023-08-17T09:02:02;7.30;;;3.70;;
10403;SDS011;5248;47.374;8.486;2023-08-17T09:04:29;4.47;;;3.50;;
10403;SDS011;5248;47.374;8.486;2023-08-17T09:06:56;4.28;;;3.70;;
10403;SDS011;5248;47.374;8.486;2023-08-17T09:09:24;3.85;;;3.53;;
10403;SDS011;5248;47.374;8.486;2023-08-17T09:11:50;4.00;;;3.70;;
10403;SDS011;5248;47.374;8.486;2023-08-17T09:14:18;4.50;;;4.10;;
10403;SDS011;5248;47.374;8.486;2023-08-17T09:16:45;4.30;;;3.97;;
10403;SDS011;5248;47.374;8.486;2023-08-17T09:19:11;4.03;;;3.72;;
10403;SDS011;5248;47.374;8.486;2023-08-17T09:21:38;5.88;;;3.88;;
10403;SDS011;5248;47.374;8.486;2023-08-17T09:24:06;4.88;;;4.03;;
10403;SDS011;5248;47.374;8.486;2023-08-17T09:26:36;4.75;;;4.32;;
10403;SDS011;5248;47.374;8.486;2023-08-17T09:29:03;6.28;;;4.38;;
10403;SDS011;5248;47.374;8.486;2023-08-17T09:31:42;4.82;;;4.15;;
10403;SDS011;5248;47.374;8.486;2023-08-17T09:34:09;4.60;;;4.10;;
10403;SDS011;5248;47.374;8.486;2023-08-17T09:36:35;5.13;;;3.70;;
10403;SDS011;5248;47.374;8.486;2023-08-17T09:39:02;4.78;;;4.35;;
10403;SDS011;5248;47.374;8.486;2023-08-17T09:41:29;4.60;;;4.25;;
10403;SDS011;5248;47.374;8.486;2023-08-17T09:43:57;4.95;;;4.47;;
10403;SDS011;5248;47.374;8.486;2023-08-17T09:46:23;5.07;;;4.20;;
10403;SDS011;5248;47.374;8.486;2023-08-17T09:48:51;7.32;;;4.43;;
10403;SDS011;5248;47.374;8.486;2023-08-17T09:51:19;4.90;;;4.45;;
10403;SDS011;5248;47.374;8.486;2023-08-17T09:53:51;4.97;;;4.65;;
10403;SDS011;5248;47.374;8.486;2023-08-17T09:56:17;8.52;;;5.10;;
10403;SDS011;5248;47.374;8.486;2023-08-17T09:58:45;5.93;;;4.60;;
10403;SDS011;5248;47.374;8.486;2023-08-17T10:01:12;5.63;;;4.80;;
10403;SDS011;5248;47.374;8.486;2023-08-17T10:03:43;7.93;;;4.50;;
10403;SDS011;5248;47.374;8.486;2023-08-17T10:06:12;5.50;;;4.40;;
10403;SDS011;5248;47.374;8.486;2023-08-17T10:08:42;5.45;;;4.85;;
10403;SDS011;5248;47.374;8.486;2023-08-17T10:11:09;5.75;;;4.60;;
10403;SDS011;5248;47.374;8.486;2023-08-17T10:13:37;5.20;;;4.70;;
10403;SDS011;5248;47.374;8.486;2023-08-17T10:16:07;6.63;;;4.40;;
10403;SDS011;5248;47.374;8.486;2023-08-17T10:18:40;7.15;;;4.60;;
10403;SDS011;5248;47.374;8.486;2023-08-17T10:21:13;5.35;;;4.70;;
10403;SDS011;5248;47.374;8.486;2023-08-17T10:23:42;7.72;;;4.82;;
10403;SDS011;5248;47.374;8.486;2023-08-17T10:26:11;9.93;;;4.72;;
10403;SDS011;5248;47.374;8.486;2023-08-17T10:28:37;4.78;;;4.47;;
10403;SDS011;5248;47.374;8.486;2023-08-17T10:31:04;5.50;;;4.68;;
10403;SDS011;5248;47.374;8.486;2023-08-17T10:33:32;7.95;;;4.22;;
10403;SDS011;5248;47.374;8.486;2023-08-17T10:36:00;7.85;;;5.30;;
10403;SDS011;5248;47.374;8.486;2023-08-17T10:38:27;4.88;;;4.40;;
10403;SDS011;5248;47.374;8.486;2023-08-17T10:41:07;5.38;;;4.53;;
10403;SDS011;5248;47.374;8.486;2023-08-17T10:43:34;4.60;;;4.20;;
10403;SDS011;5248;47.374;8.486;2023-08-17T10:46:14;4.97;;;4.10;;
10403;SDS011;5248;47.374;8.486;2023-08-17T10:48:42;4.60;;;4.20;;
10403;SDS011;5248;47.374;8.486;2023-08-17T10:51:10;6.88;;;4.40;;
10403;SDS011;5248;47.374;8.486;2023-08-17T10:53:38;5.18;;;4.63;;
10403;SDS011;5248;47.374;8.486;2023-08-17T10:56:08;4.00;;;3.70;;
10403;SDS011;5248;47.374;8.486;2023-08-17T10:58:37;5.32;;;4.35;;
10403;SDS011;5248;47.374;8.486;2023-08-17T11:01:04;5.13;;;4.18;;
10403;SDS011;5248;47.374;8.486;2023-08-17T11:03:30;5.07;;;4.57;;
10403;SDS011;5248;47.374;8.486;2023-08-17T11:05:58;5.43;;;4.00;;
10403;SDS011;5248;47.374;8.486;2023-08-17T11:08:51;3.72;;;3.50;;
10403;SDS011;5248;47.374;8.486;2023-08-17T11:11:19;6.95;;;4.50;;
10403;SDS011;5248;47.374;8.486;2023-08-17T11:13:46;4.18;;;3.78;;
10403;SDS011;5248;47.374;8.486;2023-08-17T11:16:13;4.40;;;4.00;;
10403;SDS011;5248;47.374;8.486;2023-08-17T11:18:41;3.90;;;3.60;;
10403;SDS011;5248;47.374;8.486;2023-08-17T11:21:07;4.50;;;4.10;;
10403;SDS011;5248;47.374;8.486;2023-08-17T11:23:36;4.95;;;4.28;;
10403;SDS011;5248;47.374;8.486;2023-08-17T11:26:03;4.57;;;4.20;;
10403;SDS011;5248;47.374;8.486;2023-08-17T11:28:31;5.10;;;4.18;;
10403;SDS011;5248;47.374;8.486;2023-08-17T11:31:02;4.10;;;3.80;;
10403;SDS011;5248;47.374;8.486;2023-08-17T11:33:30;5.75;;;4.30;;
10403;SDS011;5248;47.374;8.486;2023-08-17T11:35:57;5.72;;;4.10;;
10403;SDS011;5248;47.374;8.486;2023-08-17T11:38:24;4.68;;;4.30;;
10403;SDS011;5248;47.374;8.486;2023-08-17T11:40:52;4.30;;;3.90;;
10403;SDS011;5248;47.374;8.486;2023-08-17T11:43:21;4.30;;;4.00;;
10403;SDS011;5248;47.374;8.486;2023-08-17T11:45:47;4.93;;;4.32;;
10403;SDS011;5248;47.374;8.486;2023-08-17T11:48:14;5.03;;;3.80;;
10403;SDS011;5248;47.374;8.486;2023-08-17T11:50:42;4.88;;;4.20;;
10403;SDS011;5248;47.374;8.486;2023-08-17T11:53:08;7.15;;;4.43;;
10403;SDS011;5248;47.374;8.486;2023-08-17T11:55:35;5.68;;;4.20;;
10403;SDS011;5248;47.374;8.486;2023-08-17T11:58:03;4.47;;;4.07;;
10403;SDS011;5248;47.374;8.486;2023-08-17T12:00:34;4.57;;;4.07;;
10403;SDS011;5248;47.374;8.486;2023-08-17T12:03:01;4.22;;;3.80;;
10403;SDS011;5248;47.374;8.486;2023-08-17T12:05:28;5.55;;;4.47;;
10403;SDS011;5248;47.374;8.486;2023-08-17T12:07:57;4.47;;;4.10;;
10403;SDS011;5248;47.374;8.486;2023-08-17T12:10:27;5.07;;;4.35;;
10403;SDS011;5248;47.374;8.486;2023-08-17T12:12:57;5.25;;;4.75;;
10403;SDS011;5248;47.374;8.486;2023-08-17T12:15:29;6.78;;;4.10;;
10403;SDS011;5248;47.374;8.486;2023-08-17T12:17:58;5.18;;;4.70;;
10403;SDS011;5248;47.374;8.486;2023-08-17T12:20:29;4.95;;;4.43;;
10403;SDS011;5248;47.374;8.486;2023-08-17T12:23:00;4.93;;;4.50;;
10403;SDS011;5248;47.374;8.486;2023-08-17T12:25:28;5.00;;;4.07;;
10403;SDS011;5248;47.374;8.486;2023-08-17T12:27:57;5.35;;;3.60;;
10403;SDS011;5248;47.374;8.486;2023-08-17T12:30:26;5.28;;;3.58;;
10403;SDS011;5248;47.374;8.486;2023-08-17T12:32:56;3.50;;;3.20;;
10403;SDS011;5248;47.374;8.486;2023-08-17T12:35:22;7.28;;;3.60;;
10403;SDS011;5248;47.374;8.486;2023-08-17T12:37:50;3.90;;;3.30;;
10403;SDS011;5248;47.374;8.486;2023-08-17T12:40:17;4.00;;;3.15;;
10403;SDS011;5248;47.374;8.486;2023-08-17T12:42:47;4.13;;;3.13;;
10403;SDS011;5248;47.374;8.486;2023-08-17T12:45:14;4.63;;;3.13;;
10403;SDS011;5248;47.374;8.486;2023-08-17T12:47:42;3.20;;;2.80;;
10403;SDS011;5248;47.374;8.486;2023-08-17T12:50:09;4.72;;;3.05;;
10403;SDS011;5248;47.374;8.486;2023-08-17T12:52:36;5.20;;;3.00;;
10403;SDS011;5248;47.374;8.486;2023-08-17T12:55:02;3.10;;;2.90;;
10403;SDS011;5248;47.374;8.486;2023-08-17T12:57:29;3.20;;;2.90;;
10403;SDS011;5248;47.374;8.486;2023-08-17T12:59:56;3.08;;;2.78;;
10403;SDS011;5248;47.374;8.486;2023-08-17T13:02:22;7.57;;;2.90;;
10403;SDS011;5248;47.374;8.486;2023-08-17T13:04:50;3.40;;;2.92;;
10403;SDS011;5248;47.374;8.486;2023-08-17T13:07:17;4.70;;;3.35;;
10403;SDS011;5248;47.374;8.486;2023-08-17T13:09:43;5.72;;;3.13;;
10403;SDS011;5248;47.374;8.486;2023-08-17T13:12:11;6.97;;;3.22;;
10403;SDS011;5248;47.374;8.486;2023-08-17T13:14:38;5.90;;;3.55;;
10403;SDS011;5248;47.374;8.486;2023-08-17T13:17:04;7.30;;;3.90;;
10403;SDS011;5248;47.374;8.486;2023-08-17T13:19:31;6.05;;;2.90;;
10403;SDS011;5248;47.374;8.486;2023-08-17T13:21:58;3.47;;;3.15;;
10403;SDS011;5248;47.374;8.486;2023-08-17T13:24:25;5.57;;;3.30;;
10403;SDS011;5248;47.374;8.486;2023-08-17T13:26:51;3.92;;;3.50;;
10403;SDS011;5248;47.374;8.486;2023-08-17T13:29:19;3.85;;;3.22;;
10403;SDS011;5248;47.374;8.486;2023-08-17T13:31:46;3.53;;;3.22;;
10403;SDS011;5248;47.374;8.486;2023-08-17T13:34:12;4.20;;;3.22;;
10403;SDS011;5248;47.374;8.486;2023-08-17T13:36:39;6.72;;;3.05;;
10403;SDS011;5248;47.374;8.486;2023-08-17T13:39:07;4.30;;;3.55;;
10403;SDS011;5248;47.374;8.486;2023-08-17T13:41:34;3.28;;;3.00;;
10403;SDS011;5248;47.374;8.486;2023-08-17T13:44:00;4.47;;;3.17;;
10403;SDS011;5248;47.374;8.486;2023-08-17T13:46:27;3.67;;;2.72;;
10403;SDS011;5248;47.374;8.486;2023-08-17T13:48:53;4.45;;;3.08;;
10403;SDS011;5248;47.374;8.486;2023-08-17T13:51:20;6.75;;;3.13;;
10403;SDS011;5248;47.374;8.486;2023-08-17T13:53:46;7.68;;;3.40;;
10403;SDS011;5248;47.374;8.486;2023-08-17T13:56:14;4.63;;;3.08;;
10403;SDS011;5248;47.374;8.486;2023-08-17T13:58:41;3.30;;;3.00;;
10403;SDS011;5248;47.374;8.486;2023-08-17T14:01:07;3.50;;;2.80;;
10403;SDS011;5248;47.374;8.486;2023-08-17T14:03:34;6.97;;;3.53;;
10403;SDS011;5248;47.374;8.486;2023-08-17T14:06:01;5.07;;;4.07;;
10403;SDS011;5248;47.374;8.486;2023-08-17T14:08:28;6.38;;;3.50;;
10403;SDS011;5248;47.374;8.486;2023-08-17T14:10:55;5.10;;;3.50;;
10403;SDS011;5248;47.374;8.486;2023-08-17T14:13:22;6.43;;;3.40;;
10403;SDS011;5248;47.374;8.486;2023-08-17T14:15:49;4.30;;;3.60;;
10403;SDS011;5248;47.374;8.486;2023-08-17T14:18:15;5.70;;;3.70;;
10403;SDS011;5248;47.374;8.486;2023-08-17T14:20:42;5.45;;;3.47;;
10403;SDS011;5248;47.374;8.486;2023-08-17T14:23:08;3.97;;;3.58;;
10403;SDS011;5248;47.374;8.486;2023-08-17T14:25:34;7.07;;;3.42;;
10403;SDS011;5248;47.374;8.486;2023-08-17T14:28:03;5.35;;;3.53;;
10403;SDS011;5248;47.374;8.486;2023-08-17T14:30:32;6.53;;;4.03;;
10403;SDS011;5248;47.374;8.486;2023-08-17T14:33:06;5.70;;;4.85;;
10403;SDS011;5248;47.374;8.486;2023-08-17T14:35:33;6.40;;;3.70;;
10403;SDS011;5248;47.374;8.486;2023-08-17T14:38:00;7.07;;;3.75;;
10403;SDS011;5248;47.374;8.486;2023-08-17T14:40:27;4.97;;;3.70;;
10403;SDS011;5248;47.374;8.486;2023-08-17T14:42:54;4.35;;;3.58;;
10403;SDS011;5248;47.374;8.486;2023-08-17T14:45:20;5.20;;;3.78;;
10403;SDS011;5248;47.374;8.486;2023-08-17T14:47:49;5.43;;;3.83;;
10403;SDS011;5248;47.374;8.486;2023-08-17T14:50:16;6.30;;;3.63;;
10403;SDS011;5248;47.374;8.486;2023-08-17T14:52:42;5.63;;;4.00;;
10403;SDS011;5248;47.374;8.486;2023-08-17T14:55:08;5.10;;;3.65;;
10403;SDS011;5248;47.374;8.486;2023-08-17T14:57:35;5.40;;;4.10;;
10403;SDS011;5248;47.374;8.486;2023-08-17T15:00:02;4.25;;;3.85;;
10403;SDS011;5248;47.374;8.486;2023-08-17T15:02:33;4.05;;;3.60;;